Time;durP1;ratioP1;P1;durP2;ratioP2;P2;SDS_P1;SDS_P2;PMS_P1;PMS_P2;Temp;Humidity;BMP_temperature;BMP_pressure;BME280_temperature;BME280_humidity;BME280_pressure;Samples;Min_cycle;Max_cycle;Signal;HPM_P1;HPM_P2
2022/11/09 00:03:59;;;;;;;57.35;47.28;;;;;;;;;;10153847;28;20455;-66
2022/11/09 00:08:52;;;;;;;53.58;42.17;;;;;;;;;;10150755;28;20055;-67
2022/11/09 00:13:47;;;;;;;54.13;44.92;;;;;;;;;;10150729;28;20468;-66
2022/11/09 00:18:46;;;;;;;58.33;47.47;;;;;;;;;;10145649;28;20052;-67
2022/11/09 00:23:39;;;;;;;63.35;48.72;;;;;;;;;;10145699;28;20056;-66
2022/11/09 00:28:34;;;;;;;58.08;47.53;;;;;;;;;;10146116;28;20060;-66
2022/11/09 00:33:28;;;;;;;55.00;46.50;;;;;;;;;;10127296;28;20135;-67
2022/11/09 00:38:27;;;;;;;59.03;47.40;;;;;;;;;;10140302;28;20052;-66
2022/11/09 00:43:24;;;;;;;54.60;46.70;;;;;;;;;;10142274;28;20109;-66
2022/11/09 00:48:21;;;;;;;62.10;48.22;;;;;;;;;;10138040;28;20453;-66
2022/11/09 00:53:18;;;;;;;63.97;50.00;;;;;;;;;;10140773;28;20517;-66
2022/11/09 00:58:14;;;;;;;63.45;48.58;;;;;;;;;;10140634;28;20433;-66
2022/11/09 01:03:10;;;;;;;56.28;47.40;;;;;;;;;;10123629;28;20068;-66
2022/11/09 01:08:06;;;;;;;57.63;50.17;;;;;;;;;;10125598;28;20044;-66
2022/11/09 01:13:01;;;;;;;56.45;47.05;;;;;;;;;;10140031;28;20569;-66
2022/11/09 01:17:56;;;;;;;55.67;45.95;;;;;;;;;;10142979;28;20052;-66
2022/11/09 01:22:50;;;;;;;55.60;46.83;;;;;;;;;;10147386;28;20064;-67
2022/11/09 01:27:44;;;;;;;65.15;48.60;;;;;;;;;;10148566;28;20060;-67
2022/11/09 01:32:37;;;;;;;55.33;46.55;;;;;;;;;;10147604;28;20049;-65
2022/11/09 01:37:31;;;;;;;68.95;49.50;;;;;;;;;;10141694;28;20154;-66
2022/11/09 01:42:26;;;;;;;62.67;47.78;;;;;;;;;;10128836;28;20080;-67
2022/11/09 01:47:23;;;;;;;56.15;48.97;;;;;;;;;;10147221;28;20052;-66
2022/11/09 01:52:29;;;;;;;57.15;47.33;;;;;;;;;;10147762;28;20181;-66
2022/11/09 01:57:29;;;;;;;53.05;46.67;;;;;;;;;;10147689;28;20068;-66
2022/11/09 02:02:23;;;;;;;62.92;49.38;;;;;;;;;;10112799;28;20508;-66
2022/11/09 02:07:18;;;;;;;55.80;45.13;;;;;;;;;;10128730;28;20079;-66
2022/11/09 02:12:11;;;;;;;55.47;46.33;;;;;;;;;;10114893;28;20078;-66
2022/11/09 02:17:04;;;;;;;55.15;47.58;;;;;;;;;;10128365;28;20053;-66
2022/11/09 02:21:58;;;;;;;59.97;49.95;;;;;;;;;;10111788;28;20049;-66
2022/11/09 02:26:52;;;;;;;55.25;46.05;;;;;;;;;;10144538;28;20053;-66
2022/11/09 02:31:50;;;;;;;53.47;44.22;;;;;;;;;;10126937;28;20044;-67
2022/11/09 02:36:44;;;;;;;49.55;43.15;;;;;;;;;;10126799;28;20492;-67
2022/11/09 02:41:47;;;;;;;51.97;44.33;;;;;;;;;;10122070;28;20148;-67
2022/11/09 02:46:41;;;;;;;49.15;42.00;;;;;;;;;;10111867;28;20051;-67
2022/11/09 02:51:34;;;;;;;47.45;41.47;;;;;;;;;;10128321;28;20041;-67
2022/11/09 02:56:28;;;;;;;46.78;41.22;;;;;;;;;;10145661;28;20136;-66
2022/11/09 03:01:22;;;;;;;51.97;43.15;;;;;;;;;;10127778;28;20052;-66
2022/11/09 03:06:15;;;;;;;49.05;40.33;;;;;;;;;;10127718;28;20049;-67
2022/11/09 03:11:10;;;;;;;47.55;40.03;;;;;;;;;;10128399;28;20136;-67
2022/11/09 03:16:06;;;;;;;47.97;40.60;;;;;;;;;;10145174;28;20049;-66
2022/11/09 03:21:04;;;;;;;58.20;42.95;;;;;;;;;;10127657;28;20135;-66
2022/11/09 03:25:57;;;;;;;54.85;45.22;;;;;;;;;;10151094;28;20500;-66
2022/11/09 03:30:51;;;;;;;53.85;45.67;;;;;;;;;;10134566;28;20041;-66
2022/11/09 03:35:45;;;;;;;52.03;43.88;;;;;;;;;;10134112;28;20053;-66
2022/11/09 03:40:42;;;;;;;60.58;47.65;;;;;;;;;;10133606;28;20048;-66
2022/11/09 03:45:36;;;;;;;55.90;45.83;;;;;;;;;;10133948;28;20446;-66
2022/11/09 03:50:32;;;;;;;55.35;46.08;;;;;;;;;;10151348;28;20049;-66
2022/11/09 03:55:26;;;;;;;58.58;47.30;;;;;;;;;;10156266;28;20102;-66
2022/11/09 04:00:21;;;;;;;61.85;45.45;;;;;;;;;;10152499;28;20052;-65
2022/11/09 04:05:14;;;;;;;53.50;44.58;;;;;;;;;;10151427;28;20135;-65
2022/11/09 04:10:09;;;;;;;55.13;44.88;;;;;;;;;;10151177;28;20045;-65
2022/11/09 04:15:04;;;;;;;56.45;46.00;;;;;;;;;;10168783;28;20048;-66
2022/11/09 04:19:58;;;;;;;53.80;47.33;;;;;;;;;;10150857;28;20048;-66
2022/11/09 04:24:52;;;;;;;58.60;47.00;;;;;;;;;;10150688;28;20125;-66
2022/11/09 04:29:45;;;;;;;54.17;45.30;;;;;;;;;;10157655;28;20471;-66
2022/11/09 04:34:40;;;;;;;55.97;47.58;;;;;;;;;;10152705;28;20113;-66
2022/11/09 04:39:33;;;;;;;52.20;44.85;;;;;;;;;;10166506;28;20044;-66
2022/11/09 04:44:28;;;;;;;58.70;48.63;;;;;;;;;;10149516;28;20049;-66
2022/11/09 04:49:21;;;;;;;53.63;44.42;;;;;;;;;;10148938;28;20051;-66
2022/11/09 04:54:15;;;;;;;54.60;45.65;;;;;;;;;;10161751;28;20044;-66
2022/11/09 04:59:10;;;;;;;58.67;47.42;;;;;;;;;;10156483;28;20093;-66
2022/11/09 05:04:04;;;;;;;58.70;47.45;;;;;;;;;;10152875;28;20080;-66
2022/11/09 05:09:01;;;;;;;51.25;44.85;;;;;;;;;;10148269;28;20127;-66
2022/11/09 05:13:55;;;;;;;54.30;44.05;;;;;;;;;;10147900;28;20056;-66
2022/11/09 05:18:49;;;;;;;55.70;46.38;;;;;;;;;;10158475;28;20513;-66
2022/11/09 05:24:00;;;;;;;61.30;48.80;;;;;;;;;;10146902;28;20062;-66
2022/11/09 05:28:53;;;;;;;61.67;47.88;;;;;;;;;;10146540;28;20101;-66
2022/11/09 05:33:50;;;;;;;57.80;47.92;;;;;;;;;;10148547;28;20504;-66
2022/11/09 05:38:44;;;;;;;60.20;47.90;;;;;;;;;;10147952;28;20570;-66
2022/11/09 05:43:36;;;;;;;59.03;45.33;;;;;;;;;;10147238;28;20044;-66
2022/11/09 05:48:30;;;;;;;60.58;46.05;;;;;;;;;;10128892;28;20128;-66
2022/11/09 05:53:24;;;;;;;56.88;45.60;;;;;;;;;;10147581;28;20135;-67
2022/11/09 05:58:18;;;;;;;57.83;48.33;;;;;;;;;;10150307;28;20059;-66
2022/11/09 06:03:12;;;;;;;57.47;47.88;;;;;;;;;;10150226;28;20550;-66
2022/11/09 06:08:08;;;;;;;59.22;47.33;;;;;;;;;;10146304;28;20083;-66
2022/11/09 06:13:02;;;;;;;56.78;46.35;;;;;;;;;;10154884;28;20036;-65
2022/11/09 06:17:58;;;;;;;59.47;46.40;;;;;;;;;;10147655;28;20052;-65
2022/11/09 06:22:56;;;;;;;55.50;43.50;;;;;;;;;;10130685;28;20052;-65
2022/11/09 06:27:55;;;;;;;51.33;44.17;;;;;;;;;;10129646;28;20056;-65
2022/11/09 06:32:50;;;;;;;60.03;45.95;;;;;;;;;;10149903;28;20515;-65
2022/11/09 06:37:46;;;;;;;56.38;46.58;;;;;;;;;;10136657;28;20064;-65
2022/11/09 06:42:40;;;;;;;58.47;46.05;;;;;;;;;;10147011;28;20511;-65
2022/11/09 06:47:35;;;;;;;64.72;50.05;;;;;;;;;;10147714;28;20067;-66
2022/11/09 06:52:28;;;;;;;58.28;47.00;;;;;;;;;;10145668;28;20400;-64
2022/11/09 06:57:22;;;;;;;59.30;46.33;;;;;;;;;;10148579;28;20055;-66
2022/11/09 07:02:19;;;;;;;68.82;47.72;;;;;;;;;;10146737;28;20437;-65
2022/11/09 07:07:12;;;;;;;63.13;48.63;;;;;;;;;;10144063;28;20470;-64
2022/11/09 07:12:06;;;;;;;64.28;46.38;;;;;;;;;;10152153;28;20079;-66
2022/11/09 07:16:59;;;;;;;66.03;49.33;;;;;;;;;;10156986;28;20045;-64
2022/11/09 07:21:52;;;;;;;68.03;49.25;;;;;;;;;;10155577;28;20040;-64
2022/11/09 07:26:48;;;;;;;58.53;47.03;;;;;;;;;;10153185;28;20065;-64
2022/11/09 07:31:41;;;;;;;60.33;49.20;;;;;;;;;;10156041;28;20361;-65
2022/11/09 07:36:37;;;;;;;64.95;48.55;;;;;;;;;;10140491;28;20076;-64
2022/11/09 07:41:47;;;;;;;58.78;47.88;;;;;;;;;;10170427;28;20109;-64
2022/11/09 07:46:42;;;;;;;60.92;47.10;;;;;;;;;;10161275;28;20056;-63
2022/11/09 07:51:37;;;;;;;61.97;50.90;;;;;;;;;;10151209;28;20498;-64
2022/11/09 07:56:29;;;;;;;53.40;45.20;;;;;;;;;;10156522;28;20475;-64
2022/11/09 08:01:24;;;;;;;60.45;48.80;;;;;;;;;;10130732;28;20052;-64
2022/11/09 08:06:18;;;;;;;62.35;49.78;;;;;;;;;;10142241;28;20110;-64
2022/11/09 08:11:11;;;;;;;62.83;50.63;;;;;;;;;;10142623;28;20384;-64
2022/11/09 08:16:05;;;;;;;64.60;51.08;;;;;;;;;;10137130;28;20389;-64
2022/11/09 08:21:02;;;;;;;64.40;50.35;;;;;;;;;;10138029;28;20045;-64
2022/11/09 08:25:55;;;;;;;59.47;48.60;;;;;;;;;;10143803;28;20060;-64
2022/11/09 08:31:04;;;;;;;69.43;50.53;;;;;;;;;;10132437;28;20048;-64
2022/11/09 08:35:57;;;;;;;62.93;51.17;;;;;;;;;;10137687;28;20060;-64
2022/11/09 08:40:56;;;;;;;71.03;52.78;;;;;;;;;;10146866;28;20436;-66
2022/11/09 08:45:50;;;;;;;68.35;54.03;;;;;;;;;;10142977;28;20147;-65
2022/11/09 08:50:44;;;;;;;64.53;52.08;;;;;;;;;;10138648;28;20053;-66
2022/11/09 08:55:38;;;;;;;73.13;52.30;;;;;;;;;;10138178;28;20056;-66
2022/11/09 09:00:32;;;;;;;64.13;51.83;;;;;;;;;;10136135;28;20060;-66
2022/11/09 09:05:25;;;;;;;60.53;52.03;;;;;;;;;;10137662;28;20487;-66
2022/11/09 09:10:19;;;;;;;67.70;52.53;;;;;;;;;;10147585;28;20049;-66
2022/11/09 09:15:12;;;;;;;61.60;53.50;;;;;;;;;;10147418;28;21456;-66
2022/11/09 09:20:07;;;;;;;65.90;53.75;;;;;;;;;;10146418;28;20434;-66
2022/11/09 09:25:01;;;;;;;67.75;54.13;;;;;;;;;;10146124;28;21201;-66
2022/11/09 09:29:54;;;;;;;69.95;55.90;;;;;;;;;;10143861;28;20037;-68
2022/11/09 09:34:49;;;;;;;64.38;51.85;;;;;;;;;;10137956;28;20052;-68
2022/11/09 09:39:42;;;;;;;66.75;52.80;;;;;;;;;;10139862;28;20444;-68
2022/11/09 09:44:39;;;;;;;66.38;52.67;;;;;;;;;;10141801;28;20060;-68
2022/11/09 09:49:36;;;;;;;65.25;54.13;;;;;;;;;;10140822;28;20051;-68
2022/11/09 09:54:34;;;;;;;68.47;53.17;;;;;;;;;;10107030;28;20114;-68
2022/11/09 09:59:40;;;;;;;69.78;53.80;;;;;;;;;;10139941;28;20048;-67
2022/11/09 10:04:40;;;;;;;69.40;55.25;;;;;;;;;;10122027;28;20048;-68
2022/11/09 10:10:09;;;;;;;73.57;60.17;;;;;;;;;;10137809;28;20050;-68
2022/11/09 10:15:18;;;;;;;70.60;60.73;;;;;;;;;;10127036;28;20048;-69
2022/11/09 10:20:34;;;;;;;73.15;58.83;;;;;;;;;;10135958;28;20561;-71
2022/11/09 10:25:30;;;;;;;73.47;57.72;;;;;;;;;;10120077;28;20060;-71
2022/11/09 10:30:44;;;;;;;73.05;57.30;;;;;;;;;;10130941;28;20103;-68
2022/11/09 10:35:44;;;;;;;60.63;53.30;;;;;;;;;;10152278;28;20071;-70
2022/11/09 10:40:47;;;;;;;69.82;56.95;;;;;;;;;;10135349;28;20054;-74
2022/11/09 10:46:07;;;;;;;60.08;52.30;;;;;;;;;;10136969;28;20174;-76
2022/11/09 10:51:32;;;;;;;63.50;54.55;;;;;;;;;;10153830;28;20098;-75
2022/11/09 10:56:58;;;;;;;65.90;51.38;;;;;;;;;;10141768;28;20106;-76
2022/11/09 11:02:25;;;;;;;62.65;50.78;;;;;;;;;;10115606;28;20118;-64
2022/11/09 11:07:37;;;;;;;59.17;51.30;;;;;;;;;;10149389;28;20055;-64
2022/11/09 11:13:08;;;;;;;60.80;52.75;;;;;;;;;;10150817;28;20047;-63
2022/11/09 11:18:23;;;;;;;62.45;52.92;;;;;;;;;;10147193;28;20530;-64
2022/11/09 11:23:35;;;;;;;62.10;55.08;;;;;;;;;;10154441;28;20553;-63
2022/11/09 11:29:01;;;;;;;63.08;53.30;;;;;;;;;;10151237;28;20079;-63
2022/11/09 11:34:13;;;;;;;65.90;56.67;;;;;;;;;;10136512;28;20157;-63
2022/11/09 11:40:11;;;;;;;65.13;54.47;;;;;;;;;;10145747;28;20047;-63
2022/11/09 11:45:48;;;;;;;63.80;56.92;;;;;;;;;;10149257;28;20040;-64
2022/11/09 11:50:59;;;;;;;80.90;60.13;;;;;;;;;;10144949;28;20131;-64
2022/11/09 11:56:26;;;;;;;70.45;60.97;;;;;;;;;;10150576;28;20051;-64
2022/11/09 12:01:46;;;;;;;63.33;56.20;;;;;;;;;;10151923;28;20106;-64
2022/11/09 12:07:23;;;;;;;67.40;56.25;;;;;;;;;;10141671;28;20059;-64
2022/11/09 12:13:02;;;;;;;61.47;51.97;;;;;;;;;;10114099;28;20083;-63
2022/11/09 12:18:44;;;;;;;58.08;51.65;;;;;;;;;;10112452;28;20067;-64
2022/11/09 12:24:11;;;;;;;54.70;48.33;;;;;;;;;;10130836;28;20059;-64
2022/11/09 12:30:09;;;;;;;53.47;47.60;;;;;;;;;;10150122;28;20098;-64
2022/11/09 12:36:09;;;;;;;52.35;46.67;;;;;;;;;;10158645;28;20090;-64
2022/11/09 12:41:41;;;;;;;55.45;48.28;;;;;;;;;;10145640;28;20125;-64
2022/11/09 12:47:02;;;;;;;52.33;46.88;;;;;;;;;;10150720;28;20102;-64
2022/11/09 12:52:19;;;;;;;60.72;51.53;;;;;;;;;;10135851;28;20052;-64
2022/11/09 12:57:32;;;;;;;59.47;53.15;;;;;;;;;;10143010;28;20062;-64
2022/11/09 13:02:53;;;;;;;56.65;50.38;;;;;;;;;;10117250;28;20051;-64
2022/11/09 13:08:07;;;;;;;55.80;49.97;;;;;;;;;;10138456;28;20055;-63
2022/11/09 13:13:21;;;;;;;57.47;51.15;;;;;;;;;;10136826;28;20169;-63
2022/11/09 13:18:36;;;;;;;60.00;53.55;;;;;;;;;;10125193;28;20461;-64
2022/11/09 13:23:55;;;;;;;58.72;52.42;;;;;;;;;;10157693;28;20582;-63
2022/11/09 13:29:28;;;;;;;60.45;49.30;;;;;;;;;;10147632;28;20134;-64
2022/11/09 13:34:42;;;;;;;62.55;55.95;;;;;;;;;;10140151;28;20146;-64
2022/11/09 13:39:54;;;;;;;62.35;52.20;;;;;;;;;;10133346;28;20047;-64
2022/11/09 13:45:27;;;;;;;59.97;53.42;;;;;;;;;;10128963;28;20067;-64
2022/11/09 13:50:39;;;;;;;62.13;55.47;;;;;;;;;;10132195;28;20103;-63
2022/11/09 13:55:52;;;;;;;59.55;51.65;;;;;;;;;;10144224;28;20051;-63
2022/11/09 14:01:04;;;;;;;60.03;53.60;;;;;;;;;;10137579;28;20375;-64
2022/11/09 14:06:16;;;;;;;65.78;52.97;;;;;;;;;;10130039;28;20102;-64
2022/11/09 14:11:41;;;;;;;63.83;54.83;;;;;;;;;;10138155;28;20105;-64
2022/11/09 14:17:16;;;;;;;62.03;55.38;;;;;;;;;;10136921;28;20054;-64
2022/11/09 14:22:33;;;;;;;74.68;60.78;;;;;;;;;;10143785;28;20087;-64
2022/11/09 14:27:55;;;;;;;68.30;58.45;;;;;;;;;;10152305;28;20051;-64
2022/11/09 14:33:33;;;;;;;66.55;59.15;;;;;;;;;;10145786;28;20059;-64
2022/11/09 14:38:46;;;;;;;75.70;60.67;;;;;;;;;;10146030;28;20059;-64
2022/11/09 14:44:00;;;;;;;70.22;61.80;;;;;;;;;;10144493;28;20071;-64
2022/11/09 14:49:12;;;;;;;68.57;59.38;;;;;;;;;;10145648;28;20133;-64
2022/11/09 14:54:27;;;;;;;69.82;59.67;;;;;;;;;;10139180;28;20058;-64
2022/11/09 14:59:42;;;;;;;75.82;61.60;;;;;;;;;;10144526;28;20529;-63
2022/11/09 15:05:02;;;;;;;72.78;60.25;;;;;;;;;;10128255;28;20514;-63
2022/11/09 15:10:21;;;;;;;71.55;60.17;;;;;;;;;;10136373;28;20141;-63
2022/11/09 15:15:34;;;;;;;74.80;60.53;;;;;;;;;;10133337;28;20541;-63
2022/11/09 15:20:46;;;;;;;68.90;60.00;;;;;;;;;;10131067;28;20423;-63
2022/11/09 15:25:58;;;;;;;74.75;63.00;;;;;;;;;;10148541;28;20080;-64
2022/11/09 15:31:14;;;;;;;72.57;59.33;;;;;;;;;;10148752;28;20101;-64
2022/11/09 15:36:31;;;;;;;84.35;61.35;;;;;;;;;;10143230;28;20059;-63
2022/11/09 15:41:43;;;;;;;76.13;59.28;;;;;;;;;;10132372;28;20055;-63
2022/11/09 15:46:55;;;;;;;75.78;60.40;;;;;;;;;;10150612;28;20060;-63
2022/11/09 15:52:10;;;;;;;71.65;60.20;;;;;;;;;;10152621;28;20552;-63
2022/11/09 15:57:22;;;;;;;74.95;60.67;;;;;;;;;;10150712;28;20090;-63
2022/11/09 16:02:34;;;;;;;71.85;61.05;;;;;;;;;;10139560;28;20117;-64
2022/11/09 16:07:50;;;;;;;70.15;60.65;;;;;;;;;;10150743;28;20399;-63
2022/11/09 16:13:01;;;;;;;75.70;62.67;;;;;;;;;;10146876;28;20503;-63
2022/11/09 16:18:15;;;;;;;73.38;60.13;;;;;;;;;;10149818;28;20082;-64
2022/11/09 16:23:35;;;;;;;75.90;62.45;;;;;;;;;;10139945;28;20098;-66
2022/11/09 16:28:46;;;;;;;72.65;62.55;;;;;;;;;;10149214;28;20131;-64
2022/11/09 16:33:58;;;;;;;71.68;60.97;;;;;;;;;;10138615;28;20139;-65
2022/11/09 16:39:15;;;;;;;75.60;58.97;;;;;;;;;;10150300;28;20067;-64
2022/11/09 16:44:32;;;;;;;74.60;64.90;;;;;;;;;;10152394;28;20071;-64
2022/11/09 16:49:44;;;;;;;71.95;61.72;;;;;;;;;;10116304;28;20056;-64
2022/11/09 16:54:57;;;;;;;76.82;60.42;;;;;;;;;;10113699;28;20052;-65
2022/11/09 17:00:09;;;;;;;79.75;64.25;;;;;;;;;;10136679;28;20055;-64
2022/11/09 17:05:22;;;;;;;74.38;63.17;;;;;;;;;;10149210;28;20062;-64
2022/11/09 17:10:35;;;;;;;73.00;61.33;;;;;;;;;;10148136;28;20127;-64
2022/11/09 17:15:48;;;;;;;83.45;67.10;;;;;;;;;;10133475;28;20404;-63
2022/11/09 17:21:00;;;;;;;82.18;63.85;;;;;;;;;;10149678;28;20067;-62
2022/11/09 17:26:11;;;;;;;82.75;62.40;;;;;;;;;;10125344;28;20059;-63
2022/11/09 17:31:25;;;;;;;74.50;63.88;;;;;;;;;;10134347;28;20150;-63
2022/11/09 17:36:36;;;;;;;82.28;66.43;;;;;;;;;;10153452;28;20067;-63
2022/11/09 17:42:10;;;;;;;79.70;66.03;;;;;;;;;;10149694;28;20051;-63
2022/11/09 17:47:24;;;;;;;83.68;65.70;;;;;;;;;;10142251;28;20135;-63
2022/11/09 17:52:39;;;;;;;83.18;67.28;;;;;;;;;;10133904;28;20098;-63
2022/11/09 17:57:50;;;;;;;87.07;67.88;;;;;;;;;;10141491;28;20149;-63
2022/11/09 18:03:03;;;;;;;90.68;69.47;;;;;;;;;;10137625;28;20097;-63
2022/11/09 18:08:17;;;;;;;81.07;67.90;;;;;;;;;;10118639;28;20415;-63
2022/11/09 18:13:32;;;;;;;81.45;67.55;;;;;;;;;;10126625;28;20141;-63
2022/11/09 18:18:43;;;;;;;82.70;65.95;;;;;;;;;;10131087;28;20055;-63
2022/11/09 18:23:56;;;;;;;79.45;64.85;;;;;;;;;;10133679;28;20051;-63
2022/11/09 18:29:08;;;;;;;79.63;66.68;;;;;;;;;;10140882;28;20109;-63
2022/11/09 18:34:20;;;;;;;78.78;65.60;;;;;;;;;;10128553;28;20052;-63
2022/11/09 18:39:33;;;;;;;80.65;63.65;;;;;;;;;;10131931;28;20055;-63
2022/11/09 18:44:44;;;;;;;84.03;65.90;;;;;;;;;;10133952;28;20059;-63
2022/11/09 18:49:56;;;;;;;77.50;64.55;;;;;;;;;;10132677;28;20178;-63
2022/11/09 18:55:09;;;;;;;84.05;65.70;;;;;;;;;;10137865;28;20051;-62
2022/11/09 19:00:22;;;;;;;78.30;62.55;;;;;;;;;;10146279;28;20143;-63
2022/11/09 19:05:38;;;;;;;77.15;61.72;;;;;;;;;;10146656;28;20568;-64
2022/11/09 19:10:51;;;;;;;76.65;63.78;;;;;;;;;;10149582;28;20134;-63
2022/11/09 19:16:04;;;;;;;78.00;61.13;;;;;;;;;;10117074;28;20102;-62
2022/11/09 19:21:28;;;;;;;78.18;61.92;;;;;;;;;;10142860;28;20067;-62
2022/11/09 19:26:41;;;;;;;77.53;61.20;;;;;;;;;;10139303;28;20133;-62
2022/11/09 19:31:53;;;;;;;72.30;57.42;;;;;;;;;;10138002;28;20040;-63
2022/11/09 19:37:07;;;;;;;68.57;57.08;;;;;;;;;;10128796;28;20135;-63
2022/11/09 19:42:20;;;;;;;72.03;57.65;;;;;;;;;;10137063;28;20052;-63
2022/11/09 19:47:31;;;;;;;73.60;57.70;;;;;;;;;;10125915;28;20192;-63
2022/11/09 19:52:43;;;;;;;69.72;57.63;;;;;;;;;;10122022;28;20466;-61
2022/11/09 19:57:56;;;;;;;71.35;58.13;;;;;;;;;;10124164;28;20051;-62
2022/11/09 20:03:08;;;;;;;71.90;55.42;;;;;;;;;;10125326;28;20056;-62
2022/11/09 20:08:21;;;;;;;73.30;57.28;;;;;;;;;;10131894;28;20055;-64
2022/11/09 20:13:36;;;;;;;118.95;90.10;;;;;;;;;;10130887;28;20062;-63
2022/11/09 20:18:49;;;;;;;70.97;59.33;;;;;;;;;;10125717;28;20051;-61
2022/11/09 20:24:01;;;;;;;75.15;59.42;;;;;;;;;;10145636;28;20105;-64
2022/11/09 20:29:14;;;;;;;75.13;59.67;;;;;;;;;;10123207;28;20431;-63
2022/11/09 20:34:28;;;;;;;72.30;57.78;;;;;;;;;;10129146;28;20115;-63
2022/11/09 20:39:42;;;;;;;78.50;62.55;;;;;;;;;;10132822;28;20096;-61
2022/11/09 20:44:55;;;;;;;73.38;60.25;;;;;;;;;;10119232;28;20139;-61
2022/11/09 20:50:08;;;;;;;78.35;64.25;;;;;;;;;;10136344;28;20102;-60
2022/11/09 20:55:20;;;;;;;92.35;73.45;;;;;;;;;;10131454;28;20071;-60
2022/11/09 21:00:32;;;;;;;78.32;62.13;;;;;;;;;;10142064;28;20106;-61
2022/11/09 21:05:45;;;;;;;70.97;59.17;;;;;;;;;;10139016;28;20098;-63
2022/11/09 21:11:04;;;;;;;76.18;60.22;;;;;;;;;;10148163;28;20127;-61
2022/11/09 21:16:16;;;;;;;77.70;61.20;;;;;;;;;;10147515;28;20052;-61
2022/11/09 21:21:27;;;;;;;75.68;61.92;;;;;;;;;;10141346;28;20059;-61
2022/11/09 21:32:16;;;;;;;61.13;52.97;;;;;;;;;;10140855;28;20059;-60
2022/11/09 21:37:29;;;;;;;67.18;53.15;;;;;;;;;;10139045;28;20063;-60
2022/11/09 21:42:41;;;;;;;61.03;50.05;;;;;;;;;;10141896;28;20052;-61
2022/11/09 21:47:54;;;;;;;67.07;51.42;;;;;;;;;;10137239;28;20075;-60
2022/11/09 21:53:06;;;;;;;60.28;48.30;;;;;;;;;;10137090;28;20526;-60
2022/11/09 21:58:18;;;;;;;63.85;50.35;;;;;;;;;;10127535;28;20062;-61
2022/11/09 22:03:30;;;;;;;62.00;47.15;;;;;;;;;;10138370;28;20521;-61
2022/11/09 22:08:42;;;;;;;70.60;53.92;;;;;;;;;;10134232;28;20521;-61
2022/11/09 22:24:54;;;;;;;;;;;;;;;;;;10138381;28;20130;-61
2022/11/09 22:30:09;;;;;;;57.17;44.03;;;;;;;;;;10148463;28;19931;-61
2022/11/09 22:35:22;;;;;;;55.40;45.25;;;;;;;;;;10151036;28;20047;-61
2022/11/09 22:40:35;;;;;;;53.47;44.20;;;;;;;;;;10155596;28;20051;-63
2022/11/09 22:45:48;;;;;;;59.05;45.20;;;;;;;;;;10158800;28;20109;-63
2022/11/09 22:51:00;;;;;;;56.75;46.63;;;;;;;;;;10159977;28;20410;-63
2022/11/09 22:56:11;;;;;;;54.42;45.95;;;;;;;;;;10159265;28;20059;-63
2022/11/09 23:01:23;;;;;;;54.22;46.35;;;;;;;;;;10162358;28;20464;-63
2022/11/09 23:06:35;;;;;;;54.30;44.30;;;;;;;;;;10162109;28;20133;-63
2022/11/09 23:11:48;;;;;;;60.45;45.00;;;;;;;;;;10169039;28;20125;-63
2022/11/09 23:17:00;;;;;;;53.72;44.55;;;;;;;;;;10159305;28;20098;-63
2022/11/09 23:22:12;;;;;;;52.30;44.28;;;;;;;;;;10150687;28;20143;-63
2022/11/09 23:27:24;;;;;;;51.15;43.95;;;;;;;;;;10160431;28;20110;-63
2022/11/09 23:32:37;;;;;;;54.15;44.75;;;;;;;;;;10158339;28;20133;-62
2022/11/09 23:37:59;;;;;;;52.22;44.15;;;;;;;;;;10169925;28;20151;-62
2022/11/09 23:43:12;;;;;;;50.35;44.67;;;;;;;;;;10152473;28;20058;-62
2022/11/09 23:48:24;;;;;;;53.25;45.03;;;;;;;;;;10142115;28;20059;-63
2022/11/09 23:53:38;;;;;;;55.55;44.35;;;;;;;;;;10152575;28;20564;-62
2022/11/09 23:58:52;;;;;;;54.15;45.25;;;;;;;;;;10153688;28;20051;-62
